sensor_id;sensor_type;location;lat;lon;timestamp;temperature;humidity
43520;DHT22;46848;51.980;5.918;2023-04-16T00:00:38;11.50;75.00
43520;DHT22;46848;51.980;5.918;2023-04-16T00:03:04;11.50;75.90
43520;DHT22;46848;51.980;5.918;2023-04-16T00:05:30;11.50;75.70
43520;DHT22;46848;51.980;5.918;2023-04-16T00:07:55;11.40;75.50
43520;DHT22;46848;51.980;5.918;2023-04-16T00:10:22;11.50;75.70
43520;DHT22;46848;51.980;5.918;2023-04-16T00:12:47;11.40;77.30
43520;DHT22;46848;51.980;5.918;2023-04-16T00:15:13;11.30;77.20
43520;DHT22;46848;51.980;5.918;2023-04-16T00:17:38;11.30;77.00
43520;DHT22;46848;51.980;5.918;2023-04-16T00:20:04;11.40;76.90
43520;DHT22;46848;51.980;5.918;2023-04-16T00:22:30;11.30;76.70
43520;DHT22;46848;51.980;5.918;2023-04-16T00:24:56;11.40;76.50
43520;DHT22;46848;51.980;5.918;2023-04-16T00:27:21;11.40;76.30
43520;DHT22;46848;51.980;5.918;2023-04-16T00:29:47;11.40;76.60
43520;DHT22;46848;51.980;5.918;2023-04-16T00:32:13;11.40;76.70
43520;DHT22;46848;51.980;5.918;2023-04-16T00:34:38;11.40;76.60
43520;DHT22;46848;51.980;5.918;2023-04-16T00:37:04;11.40;76.60
43520;DHT22;46848;51.980;5.918;2023-04-16T00:39:30;11.40;76.80
43520;DHT22;46848;51.980;5.918;2023-04-16T00:41:55;11.40;76.80
43520;DHT22;46848;51.980;5.918;2023-04-16T00:44:21;11.40;76.70
43520;DHT22;46848;51.980;5.918;2023-04-16T00:46:46;11.40;78.10
43520;DHT22;46848;51.980;5.918;2023-04-16T00:49:12;11.40;77.90
43520;DHT22;46848;51.980;5.918;2023-04-16T00:51:38;11.30;77.50
43520;DHT22;46848;51.980;5.918;2023-04-16T00:54:03;11.40;77.90
43520;DHT22;46848;51.980;5.918;2023-04-16T00:56:31;11.40;77.50
43520;DHT22;46848;51.980;5.918;2023-04-16T00:58:58;11.40;77.20
43520;DHT22;46848;51.980;5.918;2023-04-16T01:01:25;11.40;77.20
43520;DHT22;46848;51.980;5.918;2023-04-16T01:03:54;11.50;77.10
43520;DHT22;46848;51.980;5.918;2023-04-16T01:06:21;11.50;77.00
43520;DHT22;46848;51.980;5.918;2023-04-16T01:08:47;11.50;77.80
43520;DHT22;46848;51.980;5.918;2023-04-16T01:11:14;11.60;77.40
43520;DHT22;46848;51.980;5.918;2023-04-16T01:13:40;11.50;77.20
43520;DHT22;46848;51.980;5.918;2023-04-16T01:16:07;11.50;78.10
43520;DHT22;46848;51.980;5.918;2023-04-16T01:18:33;11.40;77.90
43520;DHT22;46848;51.980;5.918;2023-04-16T01:20:59;11.50;77.80
43520;DHT22;46848;51.980;5.918;2023-04-16T01:23:25;11.50;78.00
43520;DHT22;46848;51.980;5.918;2023-04-16T01:25:50;11.50;77.70
43520;DHT22;46848;51.980;5.918;2023-04-16T01:28:16;11.50;77.60
43520;DHT22;46848;51.980;5.918;2023-04-16T01:30:42;11.50;77.90
43520;DHT22;46848;51.980;5.918;2023-04-16T01:33:10;11.50;77.80
43520;DHT22;46848;51.980;5.918;2023-04-16T01:35:36;11.50;77.70
43520;DHT22;46848;51.980;5.918;2023-04-16T01:38:02;11.50;77.80
43520;DHT22;46848;51.980;5.918;2023-04-16T01:40:31;11.50;78.20
43520;DHT22;46848;51.980;5.918;2023-04-16T01:42:56;11.50;79.10
43520;DHT22;46848;51.980;5.918;2023-04-16T01:45:22;11.40;79.00
43520;DHT22;46848;51.980;5.918;2023-04-16T01:47:51;11.40;78.80
43520;DHT22;46848;51.980;5.918;2023-04-16T01:50:18;11.40;78.60
43520;DHT22;46848;51.980;5.918;2023-04-16T01:52:43;11.40;79.30
43520;DHT22;46848;51.980;5.918;2023-04-16T01:55:10;11.40;79.10
43520;DHT22;46848;51.980;5.918;2023-04-16T01:57:35;11.40;78.80
43520;DHT22;46848;51.980;5.918;2023-04-16T02:00:02;11.40;78.70
43520;DHT22;46848;51.980;5.918;2023-04-16T02:02:28;11.50;78.60
43520;DHT22;46848;51.980;5.918;2023-04-16T02:04:55;11.50;78.40
43520;DHT22;46848;51.980;5.918;2023-04-16T02:07:25;11.50;78.30
43520;DHT22;46848;51.980;5.918;2023-04-16T02:09:52;11.50;78.00
43520;DHT22;46848;51.980;5.918;2023-04-16T02:12:17;11.50;77.90
43520;DHT22;46848;51.980;5.918;2023-04-16T02:14:43;11.60;78.00
43520;DHT22;46848;51.980;5.918;2023-04-16T02:17:09;11.60;78.20
43520;DHT22;46848;51.980;5.918;2023-04-16T02:19:34;11.50;77.90
43520;DHT22;46848;51.980;5.918;2023-04-16T02:22:00;11.60;78.00
43520;DHT22;46848;51.980;5.918;2023-04-16T02:24:26;11.60;78.10
43520;DHT22;46848;51.980;5.918;2023-04-16T02:26:52;11.60;78.00
43520;DHT22;46848;51.980;5.918;2023-04-16T02:29:18;11.60;78.30
43520;DHT22;46848;51.980;5.918;2023-04-16T02:31:44;11.60;78.10
43520;DHT22;46848;51.980;5.918;2023-04-16T02:34:09;11.50;78.00
43520;DHT22;46848;51.980;5.918;2023-04-16T02:36:35;11.60;77.90
43520;DHT22;46848;51.980;5.918;2023-04-16T02:39:00;11.60;77.90
43520;DHT22;46848;51.980;5.918;2023-04-16T02:41:26;11.60;77.90
43520;DHT22;46848;51.980;5.918;2023-04-16T02:43:52;11.60;77.80
43520;DHT22;46848;51.980;5.918;2023-04-16T02:46:17;11.70;77.90
43520;DHT22;46848;51.980;5.918;2023-04-16T02:48:43;11.60;77.80
43520;DHT22;46848;51.980;5.918;2023-04-16T02:51:08;11.60;77.70
43520;DHT22;46848;51.980;5.918;2023-04-16T02:53:35;11.60;77.80
43520;DHT22;46848;51.980;5.918;2023-04-16T02:56:01;11.60;77.90
43520;DHT22;46848;51.980;5.918;2023-04-16T02:58:27;11.60;78.10
43520;DHT22;46848;51.980;5.918;2023-04-16T03:00:53;11.60;78.30
43520;DHT22;46848;51.980;5.918;2023-04-16T03:03:19;11.50;79.50
43520;DHT22;46848;51.980;5.918;2023-04-16T03:05:45;11.50;79.00
43520;DHT22;46848;51.980;5.918;2023-04-16T03:08:11;11.50;79.50
43520;DHT22;46848;51.980;5.918;2023-04-16T03:10:37;11.50;79.30
43520;DHT22;46848;51.980;5.918;2023-04-16T03:13:03;11.40;79.10
43520;DHT22;46848;51.980;5.918;2023-04-16T03:15:30;11.40;79.60
43520;DHT22;46848;51.980;5.918;2023-04-16T03:17:56;11.40;79.40
43520;DHT22;46848;51.980;5.918;2023-04-16T03:20:23;11.40;79.60
43520;DHT22;46848;51.980;5.918;2023-04-16T03:22:49;11.40;79.50
43520;DHT22;46848;51.980;5.918;2023-04-16T03:25:17;11.40;79.70
43520;DHT22;46848;51.980;5.918;2023-04-16T03:27:42;11.30;80.00
43520;DHT22;46848;51.980;5.918;2023-04-16T03:30:12;11.30;79.90
43520;DHT22;46848;51.980;5.918;2023-04-16T03:32:38;11.30;80.60
43520;DHT22;46848;51.980;5.918;2023-04-16T03:35:04;11.30;80.20
43520;DHT22;46848;51.980;5.918;2023-04-16T03:37:30;11.30;80.00
43520;DHT22;46848;51.980;5.918;2023-04-16T03:39:56;11.30;79.90
43520;DHT22;46848;51.980;5.918;2023-04-16T03:42:22;11.40;79.70
43520;DHT22;46848;51.980;5.918;2023-04-16T03:44:47;11.40;79.80
43520;DHT22;46848;51.980;5.918;2023-04-16T03:47:13;11.40;79.50
43520;DHT22;46848;51.980;5.918;2023-04-16T03:49:40;11.40;79.60
43520;DHT22;46848;51.980;5.918;2023-04-16T03:52:06;11.40;80.80
43520;DHT22;46848;51.980;5.918;2023-04-16T03:54:31;11.30;80.60
43520;DHT22;46848;51.980;5.918;2023-04-16T03:56:58;11.30;80.30
43520;DHT22;46848;51.980;5.918;2023-04-16T03:59:24;11.30;80.60
43520;DHT22;46848;51.980;5.918;2023-04-16T04:01:49;11.30;80.20
43520;DHT22;46848;51.980;5.918;2023-04-16T04:04:16;11.30;80.00
43520;DHT22;46848;51.980;5.918;2023-04-16T04:06:44;11.30;80.50
43520;DHT22;46848;51.980;5.918;2023-04-16T04:09:10;11.30;80.50
43520;DHT22;46848;51.980;5.918;2023-04-16T04:11:36;11.30;80.20
43520;DHT22;46848;51.980;5.918;2023-04-16T04:14:01;11.40;80.00
43520;DHT22;46848;51.980;5.918;2023-04-16T04:16:27;11.40;79.80
43520;DHT22;46848;51.980;5.918;2023-04-16T04:18:52;11.40;80.30
43520;DHT22;46848;51.980;5.918;2023-04-16T04:21:19;11.40;80.20
43520;DHT22;46848;51.980;5.918;2023-04-16T04:23:45;11.40;79.90
43520;DHT22;46848;51.980;5.918;2023-04-16T04:26:10;11.50;79.80
43520;DHT22;46848;51.980;5.918;2023-04-16T04:28:36;11.50;79.70
43520;DHT22;46848;51.980;5.918;2023-04-16T04:31:02;11.50;80.00
43520;DHT22;46848;51.980;5.918;2023-04-16T04:33:28;11.50;79.80
43520;DHT22;46848;51.980;5.918;2023-04-16T04:35:55;11.40;80.40
43520;DHT22;46848;51.980;5.918;2023-04-16T04:38:21;11.40;81.20
43520;DHT22;46848;51.980;5.918;2023-04-16T04:40:50;11.30;81.80
43520;DHT22;46848;51.980;5.918;2023-04-16T04:43:16;11.30;81.10
43520;DHT22;46848;51.980;5.918;2023-04-16T04:45:42;11.30;80.80
43520;DHT22;46848;51.980;5.918;2023-04-16T04:48:07;11.30;80.80
43520;DHT22;46848;51.980;5.918;2023-04-16T04:50:33;11.30;80.70
43520;DHT22;46848;51.980;5.918;2023-04-16T04:52:58;11.40;80.50
43520;DHT22;46848;51.980;5.918;2023-04-16T04:55:24;11.40;80.40
43520;DHT22;46848;51.980;5.918;2023-04-16T04:57:50;11.40;80.20
43520;DHT22;46848;51.980;5.918;2023-04-16T05:00:15;11.40;80.00
43520;DHT22;46848;51.980;5.918;2023-04-16T05:02:41;11.50;80.00
43520;DHT22;46848;51.980;5.918;2023-04-16T05:05:07;11.50;79.90
43520;DHT22;46848;51.980;5.918;2023-04-16T05:07:33;11.50;79.80
43520;DHT22;46848;51.980;5.918;2023-04-16T05:09:58;11.50;79.70
43520;DHT22;46848;51.980;5.918;2023-04-16T05:12:24;11.50;79.80
43520;DHT22;46848;51.980;5.918;2023-04-16T05:14:50;11.50;80.10
43520;DHT22;46848;51.980;5.918;2023-04-16T05:17:16;11.50;80.10
43520;DHT22;46848;51.980;5.918;2023-04-16T05:19:41;11.50;80.10
43520;DHT22;46848;51.980;5.918;2023-04-16T05:22:07;11.50;80.00
43520;DHT22;46848;51.980;5.918;2023-04-16T05:24:36;11.50;79.80
43520;DHT22;46848;51.980;5.918;2023-04-16T05:27:02;11.60;79.70
43520;DHT22;46848;51.980;5.918;2023-04-16T05:29:28;11.60;79.60
43520;DHT22;46848;51.980;5.918;2023-04-16T05:31:53;11.60;79.50
43520;DHT22;46848;51.980;5.918;2023-04-16T05:34:19;11.60;79.40
43520;DHT22;46848;51.980;5.918;2023-04-16T05:36:44;11.60;79.40
43520;DHT22;46848;51.980;5.918;2023-04-16T05:39:10;11.60;79.40
43520;DHT22;46848;51.980;5.918;2023-04-16T05:41:36;11.60;79.60
43520;DHT22;46848;51.980;5.918;2023-04-16T05:44:01;11.60;79.60
43520;DHT22;46848;51.980;5.918;2023-04-16T05:46:27;11.60;79.70
43520;DHT22;46848;51.980;5.918;2023-04-16T05:48:53;11.60;79.70
43520;DHT22;46848;51.980;5.918;2023-04-16T05:51:18;11.70;79.70
43520;DHT22;46848;51.980;5.918;2023-04-16T05:53:46;11.60;79.50
43520;DHT22;46848;51.980;5.918;2023-04-16T05:56:11;11.70;79.50
43520;DHT22;46848;51.980;5.918;2023-04-16T05:58:37;11.70;79.50
43520;DHT22;46848;51.980;5.918;2023-04-16T06:01:04;11.70;79.70
43520;DHT22;46848;51.980;5.918;2023-04-16T06:03:29;11.70;79.50
43520;DHT22;46848;51.980;5.918;2023-04-16T06:05:55;11.70;79.50
43520;DHT22;46848;51.980;5.918;2023-04-16T06:08:21;11.70;79.40
43520;DHT22;46848;51.980;5.918;2023-04-16T06:10:46;11.70;79.50
43520;DHT22;46848;51.980;5.918;2023-04-16T06:13:13;11.70;79.50
43520;DHT22;46848;51.980;5.918;2023-04-16T06:15:39;11.70;80.50
43520;DHT22;46848;51.980;5.918;2023-04-16T06:18:04;11.70;80.00
43520;DHT22;46848;51.980;5.918;2023-04-16T06:20:30;11.60;80.40
43520;DHT22;46848;51.980;5.918;2023-04-16T06:22:56;11.60;80.10
43520;DHT22;46848;51.980;5.918;2023-04-16T06:25:23;11.60;81.00
43520;DHT22;46848;51.980;5.918;2023-04-16T06:27:48;11.60;81.20
43520;DHT22;46848;51.980;5.918;2023-04-16T06:30:15;11.60;81.00
43520;DHT22;46848;51.980;5.918;2023-04-16T06:32:41;11.50;81.40
43520;DHT22;46848;51.980;5.918;2023-04-16T06:35:08;11.50;81.10
43520;DHT22;46848;51.980;5.918;2023-04-16T06:37:34;11.60;81.20
43520;DHT22;46848;51.980;5.918;2023-04-16T06:39:59;11.50;81.50
43520;DHT22;46848;51.980;5.918;2023-04-16T06:42:25;11.50;82.20
43520;DHT22;46848;51.980;5.918;2023-04-16T06:44:51;11.50;82.30
43520;DHT22;46848;51.980;5.918;2023-04-16T06:47:16;11.50;82.00
43520;DHT22;46848;51.980;5.918;2023-04-16T06:49:42;11.50;81.70
43520;DHT22;46848;51.980;5.918;2023-04-16T06:52:07;11.50;81.90
43520;DHT22;46848;51.980;5.918;2023-04-16T06:54:33;11.60;81.60
43520;DHT22;46848;51.980;5.918;2023-04-16T06:57:00;11.50;81.80
43520;DHT22;46848;51.980;5.918;2023-04-16T06:59:25;11.60;81.50
43520;DHT22;46848;51.980;5.918;2023-04-16T07:01:51;11.60;81.50
43520;DHT22;46848;51.980;5.918;2023-04-16T07:04:17;11.70;81.70
43520;DHT22;46848;51.980;5.918;2023-04-16T07:06:42;11.70;81.70
43520;DHT22;46848;51.980;5.918;2023-04-16T07:09:08;11.70;81.40
43520;DHT22;46848;51.980;5.918;2023-04-16T07:11:35;11.70;81.70
43520;DHT22;46848;51.980;5.918;2023-04-16T07:14:01;11.70;81.40
43520;DHT22;46848;51.980;5.918;2023-04-16T07:16:26;11.70;81.30
43520;DHT22;46848;51.980;5.918;2023-04-16T07:18:52;11.70;81.10
43520;DHT22;46848;51.980;5.918;2023-04-16T07:21:17;11.90;81.40
43520;DHT22;46848;51.980;5.918;2023-04-16T07:23:43;11.80;81.10
43520;DHT22;46848;51.980;5.918;2023-04-16T07:26:09;11.90;81.00
43520;DHT22;46848;51.980;5.918;2023-04-16T07:28:36;11.90;80.60
43520;DHT22;46848;51.980;5.918;2023-04-16T07:31:03;12.00;80.60
43520;DHT22;46848;51.980;5.918;2023-04-16T07:33:28;12.00;80.40
43520;DHT22;46848;51.980;5.918;2023-04-16T07:35:54;12.10;80.30
43520;DHT22;46848;51.980;5.918;2023-04-16T07:38:20;12.10;80.40
43520;DHT22;46848;51.980;5.918;2023-04-16T07:40:45;12.10;80.20
43520;DHT22;46848;51.980;5.918;2023-04-16T07:43:12;12.20;80.00
43520;DHT22;46848;51.980;5.918;2023-04-16T07:45:39;12.30;79.70
43520;DHT22;46848;51.980;5.918;2023-04-16T07:48:05;12.30;79.40
43520;DHT22;46848;51.980;5.918;2023-04-16T07:50:34;12.30;79.80
43520;DHT22;46848;51.980;5.918;2023-04-16T07:52:59;12.30;79.60
43520;DHT22;46848;51.980;5.918;2023-04-16T07:55:26;12.30;79.70
43520;DHT22;46848;51.980;5.918;2023-04-16T07:57:52;12.30;79.70
43520;DHT22;46848;51.980;5.918;2023-04-16T08:00:18;12.30;79.60
43520;DHT22;46848;51.980;5.918;2023-04-16T08:02:43;12.30;79.50
43520;DHT22;46848;51.980;5.918;2023-04-16T08:05:11;12.30;79.40
43520;DHT22;46848;51.980;5.918;2023-04-16T08:07:37;12.40;79.60
43520;DHT22;46848;51.980;5.918;2023-04-16T08:10:02;12.40;79.40
43520;DHT22;46848;51.980;5.918;2023-04-16T08:12:28;12.40;79.10
43520;DHT22;46848;51.980;5.918;2023-04-16T08:14:54;12.50;79.00
43520;DHT22;46848;51.980;5.918;2023-04-16T08:17:19;12.60;78.90
43520;DHT22;46848;51.980;5.918;2023-04-16T08:19:46;12.60;78.60
43520;DHT22;46848;51.980;5.918;2023-04-16T08:22:13;12.70;78.40
43520;DHT22;46848;51.980;5.918;2023-04-16T08:24:39;12.70;78.20
43520;DHT22;46848;51.980;5.918;2023-04-16T08:27:05;12.80;78.00
43520;DHT22;46848;51.980;5.918;2023-04-16T08:29:31;12.80;77.80
43520;DHT22;46848;51.980;5.918;2023-04-16T08:31:57;12.90;77.80
43520;DHT22;46848;51.980;5.918;2023-04-16T08:34:23;12.90;77.60
43520;DHT22;46848;51.980;5.918;2023-04-16T08:36:48;12.90;77.90
43520;DHT22;46848;51.980;5.918;2023-04-16T08:39:14;12.80;78.10
43520;DHT22;46848;51.980;5.918;2023-04-16T08:41:42;12.80;78.00
43520;DHT22;46848;51.980;5.918;2023-04-16T08:44:13;12.90;77.90
43520;DHT22;46848;51.980;5.918;2023-04-16T08:46:40;12.90;77.70
43520;DHT22;46848;51.980;5.918;2023-04-16T08:49:07;13.00;77.50
43520;DHT22;46848;51.980;5.918;2023-04-16T08:51:35;13.00;77.30
43520;DHT22;46848;51.980;5.918;2023-04-16T08:54:11;13.20;77.30
43520;DHT22;46848;51.980;5.918;2023-04-16T08:56:40;13.20;77.10
43520;DHT22;46848;51.980;5.918;2023-04-16T08:59:06;13.20;77.00
43520;DHT22;46848;51.980;5.918;2023-04-16T09:01:34;13.20;77.00
43520;DHT22;46848;51.980;5.918;2023-04-16T09:04:03;13.20;76.90
43520;DHT22;46848;51.980;5.918;2023-04-16T09:06:29;13.30;76.80
43520;DHT22;46848;51.980;5.918;2023-04-16T09:08:56;13.30;77.00
43520;DHT22;46848;51.980;5.918;2023-04-16T09:11:24;13.30;76.90
43520;DHT22;46848;51.980;5.918;2023-04-16T09:13:51;13.30;77.10
43520;DHT22;46848;51.980;5.918;2023-04-16T09:16:17;13.30;77.00
43520;DHT22;46848;51.980;5.918;2023-04-16T09:18:44;13.30;77.20
43520;DHT22;46848;51.980;5.918;2023-04-16T09:21:12;13.20;77.30
43520;DHT22;46848;51.980;5.918;2023-04-16T09:23:38;13.20;77.40
43520;DHT22;46848;51.980;5.918;2023-04-16T09:26:04;13.10;77.40
43520;DHT22;46848;51.980;5.918;2023-04-16T09:28:45;13.10;77.60
43520;DHT22;46848;51.980;5.918;2023-04-16T09:31:16;13.10;77.60
43520;DHT22;46848;51.980;5.918;2023-04-16T09:33:56;13.10;77.40
43520;DHT22;46848;51.980;5.918;2023-04-16T09:36:25;13.20;77.20
43520;DHT22;46848;51.980;5.918;2023-04-16T09:38:52;13.30;77.00
43520;DHT22;46848;51.980;5.918;2023-04-16T09:41:19;13.50;76.70
43520;DHT22;46848;51.980;5.918;2023-04-16T09:43:59;13.50;76.40
43520;DHT22;46848;51.980;5.918;2023-04-16T09:46:40;13.70;76.00
43520;DHT22;46848;51.980;5.918;2023-04-16T09:49:12;13.80;75.60
43520;DHT22;46848;51.980;5.918;2023-04-16T09:51:40;14.00;75.40
43520;DHT22;46848;51.980;5.918;2023-04-16T09:54:06;14.10;75.20
43520;DHT22;46848;51.980;5.918;2023-04-16T09:56:32;14.10;75.00
43520;DHT22;46848;51.980;5.918;2023-04-16T09:59:03;14.20;75.00
43520;DHT22;46848;51.980;5.918;2023-04-16T10:01:29;14.40;74.60
43520;DHT22;46848;51.980;5.918;2023-04-16T10:03:55;14.40;74.30
43520;DHT22;46848;51.980;5.918;2023-04-16T10:06:23;14.50;74.10
43520;DHT22;46848;51.980;5.918;2023-04-16T10:08:53;14.50;73.90
43520;DHT22;46848;51.980;5.918;2023-04-16T10:11:22;14.60;73.50
43520;DHT22;46848;51.980;5.918;2023-04-16T10:13:48;14.70;73.40
43520;DHT22;46848;51.980;5.918;2023-04-16T10:16:14;14.80;73.20
43520;DHT22;46848;51.980;5.918;2023-04-16T10:18:41;14.90;72.90
43520;DHT22;46848;51.980;5.918;2023-04-16T10:21:08;15.10;72.70
43520;DHT22;46848;51.980;5.918;2023-04-16T10:23:37;15.20;72.30
43520;DHT22;46848;51.980;5.918;2023-04-16T10:26:04;15.30;72.00
43520;DHT22;46848;51.980;5.918;2023-04-16T10:28:31;15.40;71.50
43520;DHT22;46848;51.980;5.918;2023-04-16T10:31:04;15.50;70.60
43520;DHT22;46848;51.980;5.918;2023-04-16T10:33:33;15.60;69.90
43520;DHT22;46848;51.980;5.918;2023-04-16T10:36:09;15.70;69.90
43520;DHT22;46848;51.980;5.918;2023-04-16T10:38:47;15.80;69.60
43520;DHT22;46848;51.980;5.918;2023-04-16T10:41:14;15.80;69.70
43520;DHT22;46848;51.980;5.918;2023-04-16T10:43:43;15.90;69.70
43520;DHT22;46848;51.980;5.918;2023-04-16T10:48:47;16.00;70.00
43520;DHT22;46848;51.980;5.918;2023-04-16T10:51:23;16.00;69.30
43520;DHT22;46848;51.980;5.918;2023-04-16T10:53:50;16.10;69.20
43520;DHT22;46848;51.980;5.918;2023-04-16T10:56:23;16.10;68.90
43520;DHT22;46848;51.980;5.918;2023-04-16T10:58:49;16.10;69.00
43520;DHT22;46848;51.980;5.918;2023-04-16T11:01:17;16.10;68.20
43520;DHT22;46848;51.980;5.918;2023-04-16T11:03:47;16.10;68.60
43520;DHT22;46848;51.980;5.918;2023-04-16T11:06:14;16.20;68.60
43520;DHT22;46848;51.980;5.918;2023-04-16T11:08:44;16.40;68.50
43520;DHT22;46848;51.980;5.918;2023-04-16T11:11:11;16.60;68.30
43520;DHT22;46848;51.980;5.918;2023-04-16T11:13:37;16.70;67.40
43520;DHT22;46848;51.980;5.918;2023-04-16T11:16:03;16.60;66.90
43520;DHT22;46848;51.980;5.918;2023-04-16T11:18:29;16.60;67.10
43520;DHT22;46848;51.980;5.918;2023-04-16T11:20:55;16.70;67.00
43520;DHT22;46848;51.980;5.918;2023-04-16T11:23:21;16.90;67.00
43520;DHT22;46848;51.980;5.918;2023-04-16T11:25:46;17.00;66.70
43520;DHT22;46848;51.980;5.918;2023-04-16T11:28:12;17.20;66.20
43520;DHT22;46848;51.980;5.918;2023-04-16T11:30:38;17.30;66.00
43520;DHT22;46848;51.980;5.918;2023-04-16T11:33:05;17.30;65.80
43520;DHT22;46848;51.980;5.918;2023-04-16T11:35:33;17.40;65.60
43520;DHT22;46848;51.980;5.918;2023-04-16T11:37:59;17.30;64.50
43520;DHT22;46848;51.980;5.918;2023-04-16T11:40:30;17.20;65.00
43520;DHT22;46848;51.980;5.918;2023-04-16T11:43:13;17.20;65.20
43520;DHT22;46848;51.980;5.918;2023-04-16T11:45:57;17.30;65.30
43520;DHT22;46848;51.980;5.918;2023-04-16T11:48:25;17.40;65.20
43520;DHT22;46848;51.980;5.918;2023-04-16T11:51:09;17.50;65.10
43520;DHT22;46848;51.980;5.918;2023-04-16T11:53:35;17.50;64.80
43520;DHT22;46848;51.980;5.918;2023-04-16T11:56:01;17.40;64.40
43520;DHT22;46848;51.980;5.918;2023-04-16T11:58:27;17.40;64.70
43520;DHT22;46848;51.980;5.918;2023-04-16T12:00:53;17.40;64.80
43520;DHT22;46848;51.980;5.918;2023-04-16T12:03:37;17.40;64.80
43520;DHT22;46848;51.980;5.918;2023-04-16T12:06:08;17.50;64.70
43520;DHT22;46848;51.980;5.918;2023-04-16T12:08:34;17.60;64.70
43520;DHT22;46848;51.980;5.918;2023-04-16T12:10:59;17.70;64.60
43520;DHT22;46848;51.980;5.918;2023-04-16T12:13:25;17.70;63.80
43520;DHT22;46848;51.980;5.918;2023-04-16T12:15:55;17.70;63.70
43520;DHT22;46848;51.980;5.918;2023-04-16T12:18:23;17.70;63.90
43520;DHT22;46848;51.980;5.918;2023-04-16T12:20:49;17.70;63.80
43520;DHT22;46848;51.980;5.918;2023-04-16T12:23:29;17.80;63.70
43520;DHT22;46848;51.980;5.918;2023-04-16T12:25:55;17.80;63.60
43520;DHT22;46848;51.980;5.918;2023-04-16T12:28:36;17.90;63.70
43520;DHT22;46848;51.980;5.918;2023-04-16T12:31:05;17.90;63.50
43520;DHT22;46848;51.980;5.918;2023-04-16T12:33:34;18.00;63.50
43520;DHT22;46848;51.980;5.918;2023-04-16T12:35:59;18.00;63.40
43520;DHT22;46848;51.980;5.918;2023-04-16T12:38:26;18.00;63.10
43520;DHT22;46848;51.980;5.918;2023-04-16T12:40:52;18.10;63.70
43520;DHT22;46848;51.980;5.918;2023-04-16T12:43:21;18.10;62.90
43520;DHT22;46848;51.980;5.918;2023-04-16T12:45:47;18.10;62.80
43520;DHT22;46848;51.980;5.918;2023-04-16T12:48:13;18.20;62.60
43520;DHT22;46848;51.980;5.918;2023-04-16T12:50:39;18.20;62.50
43520;DHT22;46848;51.980;5.918;2023-04-16T12:53:04;18.20;62.50
43520;DHT22;46848;51.980;5.918;2023-04-16T12:55:30;18.20;62.30
43520;DHT22;46848;51.980;5.918;2023-04-16T12:57:56;18.20;62.20
43520;DHT22;46848;51.980;5.918;2023-04-16T13:00:21;18.10;62.10
43520;DHT22;46848;51.980;5.918;2023-04-16T13:02:47;18.10;62.50
43520;DHT22;46848;51.980;5.918;2023-04-16T13:05:13;18.00;62.40
43520;DHT22;46848;51.980;5.918;2023-04-16T13:07:44;18.00;62.50
43520;DHT22;46848;51.980;5.918;2023-04-16T13:10:10;18.00;62.60
43520;DHT22;46848;51.980;5.918;2023-04-16T13:12:36;18.10;62.60
43520;DHT22;46848;51.980;5.918;2023-04-16T13:15:03;18.20;62.60
43520;DHT22;46848;51.980;5.918;2023-04-16T13:17:29;18.20;62.60
43520;DHT22;46848;51.980;5.918;2023-04-16T13:19:55;18.30;62.50
43520;DHT22;46848;51.980;5.918;2023-04-16T13:22:21;18.30;62.30
43520;DHT22;46848;51.980;5.918;2023-04-16T13:24:47;18.40;62.30
43520;DHT22;46848;51.980;5.918;2023-04-16T13:27:12;18.50;62.20
43520;DHT22;46848;51.980;5.918;2023-04-16T13:29:40;18.60;61.90
43520;DHT22;46848;51.980;5.918;2023-04-16T13:32:06;18.70;61.80
43520;DHT22;46848;51.980;5.918;2023-04-16T13:34:32;18.70;61.40
43520;DHT22;46848;51.980;5.918;2023-04-16T13:36:57;18.90;61.30
43520;DHT22;46848;51.980;5.918;2023-04-16T13:39:23;19.00;60.90
43520;DHT22;46848;51.980;5.918;2023-04-16T13:41:49;19.20;60.60
43520;DHT22;46848;51.980;5.918;2023-04-16T13:44:15;19.30;60.50
43520;DHT22;46848;51.980;5.918;2023-04-16T13:46:41;19.30;60.30
43520;DHT22;46848;51.980;5.918;2023-04-16T13:49:11;19.40;59.70
43520;DHT22;46848;51.980;5.918;2023-04-16T13:51:37;19.30;59.80
43520;DHT22;46848;51.980;5.918;2023-04-16T13:54:03;19.20;60.00
43520;DHT22;46848;51.980;5.918;2023-04-16T13:56:28;19.20;60.10
43520;DHT22;46848;51.980;5.918;2023-04-16T13:58:54;19.10;59.90
43520;DHT22;46848;51.980;5.918;2023-04-16T14:01:20;19.10;60.20
43520;DHT22;46848;51.980;5.918;2023-04-16T14:03:46;19.10;60.30
43520;DHT22;46848;51.980;5.918;2023-04-16T14:06:11;19.10;60.30
43520;DHT22;46848;51.980;5.918;2023-04-16T14:08:38;19.10;60.40
43520;DHT22;46848;51.980;5.918;2023-04-16T14:11:03;19.10;60.40
43520;DHT22;46848;51.980;5.918;2023-04-16T14:13:30;19.00;60.20
43520;DHT22;46848;51.980;5.918;2023-04-16T14:15:56;19.00;60.40
43520;DHT22;46848;51.980;5.918;2023-04-16T14:18:22;19.10;60.40
43520;DHT22;46848;51.980;5.918;2023-04-16T14:20:47;19.20;60.20
43520;DHT22;46848;51.980;5.918;2023-04-16T14:23:14;19.20;60.00
43520;DHT22;46848;51.980;5.918;2023-04-16T14:25:40;19.20;60.10
43520;DHT22;46848;51.980;5.918;2023-04-16T14:28:06;19.30;60.00
43520;DHT22;46848;51.980;5.918;2023-04-16T14:30:33;19.30;59.80
43520;DHT22;46848;51.980;5.918;2023-04-16T14:32:59;19.40;60.00
43520;DHT22;46848;51.980;5.918;2023-04-16T14:35:25;19.20;60.40
43520;DHT22;46848;51.980;5.918;2023-04-16T14:37:51;19.20;60.00
43520;DHT22;46848;51.980;5.918;2023-04-16T14:40:16;19.20;60.00
43520;DHT22;46848;51.980;5.918;2023-04-16T14:42:42;19.20;60.10
43520;DHT22;46848;51.980;5.918;2023-04-16T14:45:08;19.10;59.50
43520;DHT22;46848;51.980;5.918;2023-04-16T14:47:35;19.10;59.90
43520;DHT22;46848;51.980;5.918;2023-04-16T14:50:02;19.10;60.60
43520;DHT22;46848;51.980;5.918;2023-04-16T14:52:30;19.10;59.90
43520;DHT22;46848;51.980;5.918;2023-04-16T14:54:56;19.10;59.40
43520;DHT22;46848;51.980;5.918;2023-04-16T14:57:21;19.10;59.80
43520;DHT22;46848;51.980;5.918;2023-04-16T14:59:47;19.20;59.80
43520;DHT22;46848;51.980;5.918;2023-04-16T15:02:13;19.00;59.20
43520;DHT22;46848;51.980;5.918;2023-04-16T15:04:39;19.00;59.70
43520;DHT22;46848;51.980;5.918;2023-04-16T15:07:05;19.00;59.80
43520;DHT22;46848;51.980;5.918;2023-04-16T15:09:32;19.00;59.80
43520;DHT22;46848;51.980;5.918;2023-04-16T15:11:58;18.90;59.90
43520;DHT22;46848;51.980;5.918;2023-04-16T15:14:25;18.80;60.20
43520;DHT22;46848;51.980;5.918;2023-04-16T15:16:51;18.80;60.50
43520;DHT22;46848;51.980;5.918;2023-04-16T15:19:17;18.70;60.20
43520;DHT22;46848;51.980;5.918;2023-04-16T15:21:43;18.60;60.50
43520;DHT22;46848;51.980;5.918;2023-04-16T15:24:09;18.40;60.00
43520;DHT22;46848;51.980;5.918;2023-04-16T15:26:34;18.20;60.50
43520;DHT22;46848;51.980;5.918;2023-04-16T15:29:00;18.10;61.20